Terminal Aerodrome Forecast
Issued by NWS Anchorage, AK

Home | Current Version | Previous Version | Text Only | Print | Product List | Glossary On
Versions: 1 2 3 4 5 6 7 8 9 10 11 12 13 14 15 16 17 18 19 20
000
FTAK31 PANC 232135 AAB
TAFANC
TAF AMD
PANC 232135Z 2322/2424 36004KT P6SM VCSH BKN080 WS020/13025KT
     FM232300 15010KT P6SM BKN080
     FM240100 16012G20KT P6SM BKN080
     FM241000 16018G28KT P6SM FEW060 BKN090 WS020/13050KT
     FM242200 16026G40KT P6SM VCSH FEW050 BKN070 WS020/13058KT=

USA.gov is the U.S. government's official web portal to all federal, state and local government web resources and services.